Van Wert, Iowa
Current Conditions -  °F | °C
As of 8:35 AM on Sunday 23 Nov 2014 (Local Time) from KI75 Reporting Station
Drizzle Drizzle  
Wind Chill: 52°   Ceiling: 400
Heat Index: 52°   Visibility: 3mi
Dew Point: 51°   Wind: 9mph
Humidity: 95%   Direction: 150°SSE
Pressure: 29.51"   Gusts: NA
Location:  40.87°N, 93.79°W
Report Text: KI75 231435Z AUTO 15008KT 3SM -DZ OVC004 11/10 A2951 RMK AO2 T01100103
Loading
Personal Weather Stations






























Interactive Weather Map New forecast layout! Learn more

10-Day Weather Forecast

Advertisements
Track Severe Weather on mobile